createdAt,value
2023-02-11T00:00:51.350Z,3.49
2023-02-11T00:03:55.785Z,3.08
2023-02-11T00:06:59.708Z,3.03
2023-02-11T00:10:03.816Z,2.89
2023-02-11T00:13:07.631Z,3.11
2023-02-11T00:16:11.440Z,3.63
2023-02-11T00:19:15.412Z,3.91
2023-02-11T00:22:20.829Z,4.02
2023-02-11T00:25:25.026Z,4.06
2023-02-11T00:28:29.138Z,4.09
2023-02-11T00:31:32.943Z,4.13
2023-02-11T00:34:36.760Z,4.05
2023-02-11T00:37:40.892Z,4.12
2023-02-11T00:40:44.727Z,4.10
2023-02-11T00:43:48.705Z,4.21
2023-02-11T00:46:52.818Z,4.18
2023-02-11T00:49:56.954Z,4.18
2023-02-11T00:53:00.947Z,4.20
2023-02-11T00:56:04.876Z,4.26
2023-02-11T00:59:08.979Z,4.27
2023-02-11T01:02:15.105Z,4.26
2023-02-11T01:05:19.607Z,4.37
2023-02-11T01:08:23.719Z,4.24
2023-02-11T01:11:27.566Z,4.32
2023-02-11T01:14:32.664Z,4.34
2023-02-11T01:17:36.870Z,4.26
2023-02-11T01:20:40.782Z,4.26
2023-02-11T01:23:44.782Z,4.32
2023-02-11T01:26:48.797Z,4.13
2023-02-11T01:29:52.315Z,4.26
2023-02-11T01:32:56.368Z,4.27
2023-02-11T01:36:00.558Z,4.31
2023-02-11T01:39:04.182Z,4.31
2023-02-11T01:42:08.069Z,4.02
2023-02-11T01:45:12.152Z,3.52
2023-02-11T01:48:16.389Z,3.00
2023-02-11T01:51:20.182Z,2.93
2023-02-11T01:54:24.372Z,3.35
2023-02-11T01:57:28.135Z,3.30
2023-02-11T02:00:32.322Z,2.95
2023-02-11T02:03:38.546Z,3.15
2023-02-11T02:06:42.935Z,3.57
2023-02-11T02:09:48.318Z,3.74
2023-02-11T02:12:52.531Z,3.23
2023-02-11T02:15:56.519Z,2.49
2023-02-11T02:19:00.590Z,2.35
2023-02-11T02:22:04.803Z,2.41
2023-02-11T02:25:08.842Z,2.42
2023-02-11T02:28:12.870Z,1.88
2023-02-11T02:31:16.870Z,2.34
2023-02-11T02:34:20.585Z,2.89
2023-02-11T02:37:26.622Z,3.15
2023-02-11T02:40:30.594Z,2.63
2023-02-11T02:43:34.423Z,2.27
2023-02-11T02:46:38.641Z,2.82
2023-02-11T02:49:42.563Z,3.14
2023-02-11T02:52:46.488Z,2.75
2023-02-11T02:55:52.138Z,2.66
2023-02-11T02:58:55.826Z,2.55
2023-02-11T03:01:59.777Z,2.70
2023-02-11T03:05:03.859Z,2.97
2023-02-11T03:08:07.870Z,3.13
2023-02-11T03:11:11.610Z,2.71
2023-02-11T03:14:17.575Z,2.73
2023-02-11T03:17:21.462Z,2.55
2023-02-11T03:20:25.470Z,2.38
2023-02-11T03:23:29.426Z,1.97
2023-02-11T03:26:33.306Z,1.96
2023-02-11T03:29:37.267Z,2.01
2023-02-11T03:32:41.416Z,1.76
2023-02-11T03:35:44.976Z,2.06
2023-02-11T03:38:50.892Z,2.19
2023-02-11T03:41:54.816Z,2.18
2023-02-11T03:45:01.562Z,2.16
2023-02-11T03:48:05.531Z,2.19
2023-02-11T03:51:11.258Z,1.94
2023-02-11T03:54:15.310Z,2.12
2023-02-11T03:57:19.204Z,1.99
2023-02-11T04:00:23.114Z,2.33
2023-02-11T04:03:29.401Z,2.77
2023-02-11T04:06:33.231Z,2.93
2023-02-11T04:09:37.369Z,3.19
2023-02-11T04:12:41.355Z,3.26
2023-02-11T04:15:48.783Z,3.35
2023-02-11T04:18:55.977Z,3.26
2023-02-11T04:21:59.918Z,3.42
2023-02-11T04:25:05.909Z,3.46
2023-02-11T04:28:11.512Z,3.52
2023-02-11T04:31:15.863Z,3.56
2023-02-11T04:34:19.823Z,3.57
2023-02-11T04:37:23.607Z,3.44
2023-02-11T04:40:27.629Z,3.54
2023-02-11T04:43:31.901Z,3.61
2023-02-11T04:46:36.123Z,3.48
2023-02-11T04:49:40.024Z,3.50
2023-02-11T04:52:43.976Z,3.51
2023-02-11T04:55:51.366Z,3.63
2023-02-11T04:58:55.328Z,3.68
2023-02-11T05:01:59.336Z,3.56
2023-02-11T05:05:04.321Z,3.45
2023-02-11T05:08:08.186Z,3.45
2023-02-11T05:11:12.596Z,3.52
2023-02-11T05:14:16.504Z,3.60
2023-02-11T05:17:20.677Z,3.63
2023-02-11T05:20:24.608Z,3.59
2023-02-11T05:23:28.521Z,3.57
2023-02-11T05:26:32.427Z,3.58
2023-02-11T05:29:38.040Z,3.59
2023-02-11T05:32:42.155Z,3.63
2023-02-11T05:35:46.101Z,3.65
2023-02-11T05:38:51.998Z,3.42
2023-02-11T05:41:55.916Z,3.06
2023-02-11T05:45:00.224Z,2.54
2023-02-11T05:48:04.494Z,2.42
2023-02-11T05:51:08.662Z,2.51
2023-02-11T05:54:12.669Z,2.87
2023-02-11T05:57:16.630Z,3.19
2023-02-11T06:00:26.679Z,3.35
2023-02-11T06:03:30.787Z,3.17
2023-02-11T06:06:34.787Z,3.27
2023-02-11T06:09:38.917Z,3.33
2023-02-11T06:12:43.529Z,3.36
2023-02-11T06:15:47.407Z,2.69
2023-02-11T06:18:51.270Z,2.48
2023-02-11T06:21:55.326Z,2.63
2023-02-11T06:25:02.054Z,2.78
2023-02-11T06:28:06.028Z,2.60
2023-02-11T06:31:10.087Z,2.37
2023-02-11T06:34:13.874Z,2.06
2023-02-11T06:37:18.129Z,2.34
2023-02-11T06:40:22.206Z,2.33
2023-02-11T06:43:26.207Z,1.96
2023-02-11T06:46:30.126Z,1.51
2023-02-11T06:49:34.202Z,1.75
2023-02-11T06:52:40.383Z,2.23
2023-02-11T06:55:44.529Z,2.56
2023-02-11T06:58:48.554Z,2.31
2023-02-11T07:01:52.505Z,2.11
2023-02-11T07:04:56.485Z,2.64
2023-02-11T07:08:02.063Z,2.57
2023-02-11T07:11:08.062Z,2.32
2023-02-11T07:14:12.199Z,2.46
2023-02-11T07:17:16.155Z,2.59
2023-02-11T07:20:22.206Z,2.32
2023-02-11T07:23:26.349Z,2.45
2023-02-11T07:26:30.568Z,2.71
2023-02-11T07:29:34.473Z,2.87
2023-02-11T07:32:38.455Z,2.82
2023-02-11T07:35:42.815Z,2.58
2023-02-11T07:38:46.861Z,2.79
2023-02-11T07:41:50.983Z,2.54
2023-02-11T07:44:57.018Z,2.62
2023-02-11T07:48:05.496Z,2.13
2023-02-11T07:51:09.593Z,2.20
2023-02-11T07:54:13.436Z,2.28
2023-02-11T07:57:17.375Z,2.37
2023-02-11T08:00:23.492Z,2.83
2023-02-11T08:03:27.681Z,3.14
2023-02-11T08:06:31.700Z,3.37
2023-02-11T08:09:37.362Z,3.43
2023-02-11T08:12:47.425Z,3.37
2023-02-11T08:15:51.826Z,3.49
2023-02-11T08:18:55.993Z,3.41
2023-02-11T08:22:01.426Z,3.53
2023-02-11T08:25:05.585Z,3.25
2023-02-11T08:28:09.585Z,3.62
2023-02-11T08:31:13.590Z,3.55
2023-02-11T08:34:17.517Z,3.40
2023-02-11T08:37:23.707Z,3.89
2023-02-11T08:40:27.781Z,3.95
2023-02-11T08:43:33.826Z,4.04
2023-02-11T08:46:42.928Z,3.67
2023-02-11T08:49:46.974Z,4.06
2023-02-11T08:52:52.237Z,4.14
2023-02-11T08:55:56.473Z,3.83
2023-02-11T08:59:00.587Z,3.69
2023-02-11T09:02:09.335Z,3.63
2023-02-11T09:05:13.294Z,3.75
2023-02-11T09:08:17.245Z,4.34
2023-02-11T09:11:21.172Z,4.46
2023-02-11T09:14:25.218Z,4.29
2023-02-11T09:17:29.441Z,4.60
2023-02-11T09:20:33.428Z,4.73
2023-02-11T09:23:37.306Z,4.87
2023-02-11T09:26:41.279Z,5.06
2023-02-11T09:29:45.374Z,4.93
2023-02-11T09:32:49.409Z,5.12
2023-02-11T09:35:53.359Z,5.26
2023-02-11T09:38:58.752Z,5.26
2023-02-11T09:42:02.782Z,4.78
2023-02-11T09:45:06.924Z,4.53
2023-02-11T09:48:11.010Z,4.77
2023-02-11T09:51:15.107Z,4.87
2023-02-11T09:54:18.981Z,5.35
2023-02-11T09:57:28.550Z,5.27
2023-02-11T10:00:33.406Z,5.24
2023-02-11T10:03:37.345Z,5.43
2023-02-11T10:06:41.442Z,5.49
2023-02-11T10:09:45.543Z,5.49
2023-02-11T10:12:49.679Z,5.26
2023-02-11T10:15:53.685Z,5.71
2023-02-11T10:18:57.539Z,5.85
2023-02-11T10:22:03.555Z,5.56
2023-02-11T10:25:07.625Z,5.20
2023-02-11T10:28:12.134Z,5.38
2023-02-11T10:31:15.850Z,5.56
2023-02-11T10:34:21.303Z,5.92
2023-02-11T10:37:25.618Z,5.32
2023-02-11T10:40:31.455Z,5.80
2023-02-11T10:43:35.512Z,6.05
2023-02-11T10:46:39.516Z,5.74
2023-02-11T10:49:43.490Z,6.12
2023-02-11T10:52:47.485Z,6.08
2023-02-11T10:55:51.807Z,5.92
2023-02-11T10:58:55.843Z,5.88
2023-02-11T11:01:59.849Z,5.98
2023-02-11T11:05:03.769Z,5.89
2023-02-11T11:08:07.731Z,6.08
2023-02-11T11:11:11.784Z,5.90
2023-02-11T11:14:17.007Z,6.32
2023-02-11T11:17:20.852Z,6.40
2023-02-11T11:20:27.199Z,6.66
2023-02-11T11:23:31.054Z,6.46
2023-02-11T11:26:35.472Z,6.78
2023-02-11T11:29:41.405Z,6.77
2023-02-11T11:32:45.252Z,7.05
2023-02-11T11:35:49.561Z,7.14
2023-02-11T11:38:53.591Z,7.14
2023-02-11T11:41:57.873Z,7.27
2023-02-11T11:45:02.026Z,7.57
2023-02-11T11:48:05.840Z,7.49
2023-02-11T11:51:09.867Z,7.37
2023-02-11T11:54:14.117Z,7.13
2023-02-11T11:57:17.871Z,7.34
2023-02-11T12:00:23.149Z,7.54
2023-02-11T12:03:27.410Z,7.65
2023-02-11T12:06:36.574Z,7.37
2023-02-11T12:09:42.878Z,7.61
2023-02-11T12:12:47.004Z,7.76
2023-02-11T12:15:50.941Z,7.85
2023-02-11T12:18:54.641Z,7.53
2023-02-11T12:21:59.128Z,7.36
2023-02-11T12:25:03.096Z,7.10
2023-02-11T12:28:06.872Z,7.06
2023-02-11T12:34:33.236Z,7.04
2023-02-11T12:37:37.358Z,7.23
2023-02-11T12:40:41.357Z,7.64
2023-02-11T12:43:45.338Z,7.81
2023-02-11T12:46:49.678Z,7.76
2023-02-11T12:49:53.737Z,7.43
2023-02-11T12:52:57.991Z,7.78
2023-02-11T12:56:01.937Z,7.81
2023-02-11T12:59:07.469Z,7.81
2023-02-11T13:02:12.819Z,7.78
2023-02-11T13:05:17.176Z,7.73
2023-02-11T13:08:21.104Z,7.63
2023-02-11T13:11:25.052Z,7.60
2023-02-11T13:14:31.155Z,7.84
2023-02-11T13:17:35.015Z,7.74
2023-02-11T13:20:38.970Z,7.32
2023-02-11T13:23:43.065Z,7.57
2023-02-11T13:26:47.139Z,7.66
2023-02-11T13:29:51.112Z,7.93
2023-02-11T13:32:55.179Z,7.99
2023-02-11T13:35:59.389Z,8.00
2023-02-11T13:39:03.568Z,7.80
2023-02-11T13:42:07.310Z,7.96
2023-02-11T13:45:11.479Z,7.96
2023-02-11T13:48:15.239Z,8.00
2023-02-11T13:51:19.132Z,7.69
2023-02-11T13:54:23.110Z,7.93
2023-02-11T13:57:27.097Z,7.83
2023-02-11T14:00:30.917Z,8.14
